Time;durP1;ratioP1;P1;durP2;ratioP2;P2;SDS_P1;SDS_P2;PMS_P1;PMS_P2;Temp;Humidity;BMP_temperature;BMP_pressure;BME280_temperature;BME280_humidity;BME280_pressure;Samples;Min_cycle;Max_cycle;Signal;HPM_P1;HPM_P2
2021/01/13 10:13:43;;;;;;;4.10;2.20;;;5.60;99.90;;;;;;2916124;22;20239;-77
2021/01/13 10:16:11;;;;;;;5.63;1.97;;;5.80;99.90;;;;;;5055186;28;20206;-73
2021/01/13 10:18:53;;;;;;;7.87;2.13;;;5.90;99.90;;;;;;5055969;28;20232;-75
2021/01/13 10:21:20;;;;;;;6.20;2.10;;;5.90;99.90;;;;;;5053302;28;20729;-73
2021/01/13 10:23:48;;;;;;;3.33;2.03;;;6.00;99.90;;;;;;5055785;28;20208;-80
2021/01/13 10:26:14;;;;;;;5.13;1.90;;;6.20;99.90;;;;;;5055700;28;20262;-81
2021/01/13 10:28:42;;;;;;;7.60;2.47;;;6.20;99.90;;;;;;5055683;28;20678;-80
2021/01/13 10:31:10;;;;;;;7.37;2.23;;;6.00;99.90;;;;;;5055678;28;20243;-76
2021/01/13 10:33:55;;;;;;;5.00;2.00;;;6.10;99.90;;;;;;5055682;28;20223;-81
2021/01/13 10:36:46;;;;;;;4.50;1.70;;;6.00;99.90;;;;;;5055459;28;20203;-81
2021/01/13 10:39:18;;;;;;;2.87;1.70;;;6.00;99.90;;;;;;5055504;28;20240;-72
2021/01/13 10:41:46;;;;;;;7.73;1.90;;;6.10;99.90;;;;;;5055409;28;20220;-81
2021/01/13 10:44:17;;;;;;;8.53;1.80;;;6.10;99.90;;;;;;5055837;28;20546;-72
2021/01/13 10:46:49;;;;;;;8.40;2.10;;;6.10;99.90;;;;;;5055171;28;20207;-72
2021/01/13 10:49:27;;;;;;;5.93;1.97;;;6.10;99.90;;;;;;5055319;28;20208;-81
2021/01/13 10:51:55;;;;;;;8.83;2.17;;;6.20;99.90;;;;;;5055074;28;20224;-72
2021/01/13 10:54:23;;;;;;;5.80;1.83;;;6.10;99.90;;;;;;5055359;28;20199;-73
2021/01/13 10:56:56;;;;;;;5.33;1.60;;;6.10;99.90;;;;;;5055189;28;20215;-72
2021/01/13 10:59:24;;;;;;;3.47;1.80;;;6.00;99.90;;;;;;5054983;28;20708;-80
2021/01/13 11:01:52;;;;;;;3.07;1.83;;;6.00;99.90;;;;;;5055016;28;20224;-80
2021/01/13 11:04:33;;;;;;;5.27;1.67;;;6.00;99.90;;;;;;5055264;28;20216;-74
2021/01/13 11:07:02;;;;;;;6.90;2.10;;;5.90;99.90;;;;;;5054891;28;20212;-72
2021/01/13 11:09:29;;;;;;;5.67;2.17;;;5.80;99.90;;;;;;5054913;28;20219;-74
2021/01/13 11:11:56;;;;;;;4.03;1.60;;;5.90;99.90;;;;;;5055128;28;20559;-79
2021/01/13 11:14:35;;;;;;;6.97;2.03;;;5.90;99.90;;;;;;5054897;28;20219;-80
2021/01/13 11:17:09;;;;;;;6.57;2.40;;;6.00;99.90;;;;;;5054583;28;20208;-73
2021/01/13 11:19:36;;;;;;;4.30;2.00;;;6.10;99.90;;;;;;5054628;28;20573;-81
2021/01/13 11:22:03;;;;;;;6.77;1.87;;;6.10;99.90;;;;;;5054353;28;20232;-78
2021/01/13 11:24:40;;;;;;;7.10;1.70;;;6.10;99.90;;;;;;5054608;28;20212;-72
2021/01/13 11:27:10;;;;;;;5.17;2.37;;;6.10;99.90;;;;;;5054757;28;20210;-77
2021/01/13 11:29:40;;;;;;;4.80;2.23;;;6.10;99.90;;;;;;5054634;28;20609;-72
2021/01/13 11:32:08;;;;;;;4.37;1.77;;;6.00;99.90;;;;;;5054490;28;20293;-73
2021/01/13 11:34:35;;;;;;;7.80;1.53;;;6.00;99.90;;;;;;5054428;28;20211;-72
2021/01/13 11:37:43;;;;;;;3.73;1.73;;;5.80;99.90;;;;;;5054584;28;20239;-72
2021/01/13 11:40:23;;;;;;;5.20;2.17;;;5.70;99.90;;;;;;5028569;28;20200;-72
2021/01/13 11:43:22;;;;;;;5.90;2.17;;;5.80;99.90;;;;;;5054071;28;20558;-76
2021/01/13 11:46:02;;;;;;;6.90;2.10;;;5.80;99.90;;;;;;5053937;28;20716;-74
2021/01/13 11:48:42;;;;;;;5.37;2.10;;;6.00;99.90;;;;;;5054204;28;20571;-73
2021/01/13 11:51:12;;;;;;;7.20;2.17;;;5.90;99.90;;;;;;5053671;28;20228;-73
2021/01/13 11:53:39;;;;;;;3.63;1.80;;;6.00;99.90;;;;;;5054333;28;20208;-73
2021/01/13 11:56:06;;;;;;;3.33;1.90;;;6.00;99.90;;;;;;5053941;28;20211;-72
2021/01/13 11:58:32;;;;;;;9.00;2.20;;;6.00;99.90;;;;;;5053850;28;20231;-72
2021/01/13 12:01:00;;;;;;;4.10;2.70;;;6.20;99.90;;;;;;5053605;28;20256;-72
2021/01/13 12:03:26;;;;;;;5.73;2.10;;;6.10;99.90;;;;;;5053580;28;20658;-78
2021/01/13 12:05:52;;;;;;;4.90;2.33;;;5.90;99.90;;;;;;5053708;28;20558;-72
2021/01/13 12:08:20;;;;;;;3.13;2.03;;;6.00;99.90;;;;;;5054055;28;20292;-72
2021/01/13 12:10:53;;;;;;;4.33;2.00;;;6.00;99.90;;;;;;5053852;28;20274;-72
2021/01/13 12:13:21;;;;;;;2.80;1.77;;;6.20;99.90;;;;;;5053927;28;20728;-73
2021/01/13 12:15:52;;;;;;;6.60;2.40;;;6.30;99.90;;;;;;5053487;28;20204;-79
2021/01/13 12:18:22;;;;;;;4.13;2.23;;;6.20;99.90;;;;;;5046236;28;20229;-77
2021/01/13 12:20:49;;;;;;;4.50;1.77;;;6.20;99.90;;;;;;5033145;28;20681;-78
2021/01/13 12:23:20;;;;;;;3.70;2.20;;;6.20;99.90;;;;;;5033441;28;20204;-78
2021/01/13 12:25:48;;;;;;;5.77;2.00;;;6.20;99.90;;;;;;5033159;28;20735;-78
2021/01/13 12:28:14;;;;;;;5.67;2.10;;;6.30;99.90;;;;;;5033155;28;20208;-73
2021/01/13 12:30:57;;;;;;;6.60;2.17;;;6.30;99.90;;;;;;5032426;28;20224;-78
2021/01/13 12:33:24;;;;;;;4.80;1.93;;;6.40;99.90;;;;;;5033548;28;20212;-74
2021/01/13 12:35:51;;;;;;;3.97;1.90;;;6.40;99.90;;;;;;5033547;28;20232;-73
2021/01/13 12:38:17;;;;;;;4.03;2.23;;;6.40;99.90;;;;;;5032853;28;20282;-74
2021/01/13 12:40:44;;;;;;;4.77;2.20;;;6.50;99.90;;;;;;5032815;28;20224;-79
2021/01/13 12:43:12;;;;;;;3.53;1.90;;;6.70;99.90;;;;;;5032609;28;20725;-74
2021/01/13 12:45:38;;;;;;;8.00;2.07;;;6.80;99.90;;;;;;5032735;28;20607;-78
2021/01/13 12:48:05;;;;;;;4.13;2.10;;;6.70;99.90;;;;;;5034093;28;20215;-75
2021/01/13 12:50:32;;;;;;;6.60;2.40;;;6.90;99.90;;;;;;5032869;28;20224;-73
2021/01/13 12:52:58;;;;;;;3.47;2.00;;;7.20;99.90;;;;;;5032841;28;20215;-78
2021/01/13 12:55:25;;;;;;;3.77;2.20;;;7.40;99.90;;;;;;5032881;28;20220;-74
2021/01/13 12:57:51;;;;;;;4.77;2.10;;;7.40;99.90;;;;;;5032511;28;20703;-74
2021/01/13 13:00:17;;;;;;;5.20;1.63;;;7.40;99.90;;;;;;5032622;28;20209;-78
2021/01/13 13:02:43;;;;;;;3.63;1.97;;;7.50;99.90;;;;;;5032881;28;20209;-78
2021/01/13 13:05:11;;;;;;;2.93;1.93;;;7.70;99.90;;;;;;5032917;28;20201;-73
2021/01/13 13:07:38;;;;;;;5.63;2.50;;;7.70;99.90;;;;;;5032622;28;20204;-78
2021/01/13 13:10:06;;;;;;;4.47;2.37;;;7.70;99.90;;;;;;5032620;28;20204;-78
2021/01/13 13:12:32;;;;;;;3.30;1.83;;;7.70;99.90;;;;;;5032588;28;20205;-73
2021/01/13 13:14:58;;;;;;;4.03;2.27;;;7.80;99.90;;;;;;5032312;28;20220;-73
2021/01/13 13:17:24;;;;;;;6.83;2.40;;;7.90;99.90;;;;;;5032497;28;20208;-73
2021/01/13 13:19:51;;;;;;;3.30;1.87;;;7.80;99.90;;;;;;5049445;28;20200;-75
2021/01/13 13:22:17;;;;;;;3.33;2.00;;;7.90;99.90;;;;;;5052056;28;20232;-78
2021/01/13 13:24:44;;;;;;;3.50;1.73;;;8.00;99.90;;;;;;5042129;28;20681;-73
2021/01/13 13:27:11;;;;;;;7.07;2.43;;;7.90;99.90;;;;;;5042515;28;20313;-73
2021/01/13 13:29:37;;;;;;;4.60;1.83;;;7.90;99.90;;;;;;5040910;28;20205;-73
2021/01/13 13:32:04;;;;;;;4.47;2.40;;;7.90;99.90;;;;;;5048986;28;20227;-78
2021/01/13 13:34:30;;;;;;;4.47;2.47;;;8.00;99.90;;;;;;5052626;28;20752;-73
2021/01/13 13:36:59;;;;;;;3.63;1.97;;;7.80;99.90;;;;;;5052589;28;20258;-79
2021/01/13 13:39:25;;;;;;;6.13;2.13;;;7.90;99.90;;;;;;5052215;28;20629;-76
2021/01/13 13:41:56;;;;;;;5.60;2.30;;;7.70;99.90;;;;;;5053853;28;20238;-80
2021/01/13 13:44:22;;;;;;;5.13;2.60;;;7.70;99.90;;;;;;5056755;28;20212;-78
2021/01/13 13:46:48;;;;;;;5.27;2.77;;;7.70;99.90;;;;;;5056557;28;20204;-76
2021/01/13 13:49:15;;;;;;;4.20;2.50;;;7.60;99.90;;;;;;5056477;28;20250;-79
2021/01/13 13:51:43;;;;;;;3.60;2.40;;;7.30;99.90;;;;;;5056414;28;20228;-80
2021/01/13 13:54:09;;;;;;;6.60;2.50;;;7.40;99.90;;;;;;5055616;28;20208;-73
2021/01/13 13:56:36;;;;;;;5.30;2.67;;;7.40;99.90;;;;;;5056375;28;20212;-73
2021/01/13 13:59:03;;;;;;;7.60;3.07;;;7.60;99.90;;;;;;5056245;28;20238;-80
2021/01/13 14:01:32;;;;;;;5.90;2.90;;;7.60;99.90;;;;;;5056420;28;20220;-73
2021/01/13 14:03:58;;;;;;;6.70;3.07;;;7.70;99.90;;;;;;5056139;28;20223;-79
2021/01/13 14:06:26;;;;;;;9.93;3.10;;;7.80;99.90;;;;;;5056052;28;20208;-79
2021/01/13 14:08:53;;;;;;;6.17;3.33;;;7.80;99.90;;;;;;5055885;28;20211;-73
2021/01/13 14:11:21;;;;;;;6.10;3.10;;;7.70;99.90;;;;;;5056074;28;20232;-76
2021/01/13 14:13:47;;;;;;;8.60;3.37;;;7.50;99.90;;;;;;5055998;28;20208;-73
2021/01/13 14:16:18;;;;;;;7.60;3.23;;;7.50;99.90;;;;;;5055830;28;20611;-79
2021/01/13 14:18:45;;;;;;;6.93;3.17;;;7.50;99.90;;;;;;5055958;28;20242;-75
2021/01/13 14:21:12;;;;;;;9.87;4.57;;;7.60;99.90;;;;;;5055620;28;20234;-75
2021/01/13 14:23:40;;;;;;;10.53;3.80;;;7.40;99.90;;;;;;5056129;28;20266;-78
2021/01/13 14:26:06;;;;;;;9.73;4.03;;;7.30;99.90;;;;;;5055835;28;20214;-74
2021/01/13 14:28:33;;;;;;;7.00;3.53;;;7.30;99.90;;;;;;5055848;28;20208;-79
2021/01/13 14:30:59;;;;;;;13.13;4.40;;;7.30;99.90;;;;;;5055460;28;20232;-78
2021/01/13 14:33:26;;;;;;;13.53;4.13;;;7.10;99.90;;;;;;5055683;28;20204;-72
2021/01/13 14:35:52;;;;;;;7.33;3.73;;;7.20;99.90;;;;;;5055197;28;20204;-80
2021/01/13 14:38:19;;;;;;;8.50;4.43;;;7.10;99.90;;;;;;5055608;28;20239;-72
2021/01/13 14:40:45;;;;;;;11.87;4.53;;;7.20;99.90;;;;;;5055709;28;20228;-76
2021/01/13 14:43:12;;;;;;;9.87;3.57;;;7.10;99.90;;;;;;5055640;28;20291;-71
2021/01/13 14:45:38;;;;;;;7.40;3.90;;;7.00;99.90;;;;;;5055357;28;20574;-72
2021/01/13 14:48:05;;;;;;;7.63;4.30;;;7.00;99.90;;;;;;5055330;28;20633;-72
2021/01/13 14:50:32;;;;;;;8.83;4.47;;;7.00;99.90;;;;;;5055179;28;20223;-73
2021/01/13 14:52:59;;;;;;;9.20;4.10;;;7.00;99.90;;;;;;5055066;28;20243;-76
2021/01/13 14:55:25;;;;;;;7.43;4.33;;;6.90;99.90;;;;;;5055240;28;20269;-72
2021/01/13 14:57:51;;;;;;;13.30;3.93;;;6.80;99.90;;;;;;5055013;28;20697;-73
2021/01/13 15:00:19;;;;;;;7.37;3.70;;;7.00;99.90;;;;;;5054786;28;20205;-72
2021/01/13 15:02:45;;;;;;;10.83;4.10;;;7.10;99.90;;;;;;5054704;28;20204;-77
2021/01/13 15:05:12;;;;;;;15.93;4.17;;;7.10;99.90;;;;;;5054924;28;20203;-72
2021/01/13 15:07:39;;;;;;;7.57;4.07;;;7.10;99.90;;;;;;5055025;28;20562;-72
2021/01/13 15:10:06;;;;;;;9.00;4.67;;;7.20;99.90;;;;;;5054835;28;20570;-80
2021/01/13 15:12:32;;;;;;;7.37;3.60;;;7.20;99.90;;;;;;5055022;28;20211;-72
2021/01/13 15:14:59;;;;;;;12.53;5.00;;;7.20;99.90;;;;;;5054878;28;20220;-72
2021/01/13 15:17:25;;;;;;;8.00;4.47;;;7.10;99.90;;;;;;5054547;28;20204;-73
2021/01/13 15:19:51;;;;;;;9.63;3.57;;;7.00;99.90;;;;;;5054966;28;20207;-72
2021/01/13 15:22:18;;;;;;;9.60;4.30;;;7.00;99.90;;;;;;5054963;28;20220;-72
2021/01/13 15:24:45;;;;;;;9.53;4.07;;;6.80;99.90;;;;;;5054612;28;20204;-72
2021/01/13 15:27:17;;;;;;;7.90;4.20;;;6.80;99.90;;;;;;5054662;28;20204;-72
2021/01/13 15:29:43;;;;;;;8.20;4.13;;;7.00;99.90;;;;;;5054582;28;20200;-81
2021/01/13 15:32:10;;;;;;;6.30;3.83;;;6.90;99.90;;;;;;5054345;28;20228;-72
2021/01/13 15:34:36;;;;;;;6.77;3.83;;;6.90;99.90;;;;;;5054398;28;20212;-81
2021/01/13 15:37:02;;;;;;;7.43;3.47;;;6.80;99.90;;;;;;5054662;28;20208;-73
2021/01/13 15:39:28;;;;;;;10.60;3.93;;;6.80;99.90;;;;;;5054509;28;20231;-72
2021/01/13 15:41:55;;;;;;;5.80;3.53;;;6.80;99.90;;;;;;5054296;28;20220;-72
2021/01/13 15:44:22;;;;;;;11.33;4.47;;;6.90;99.90;;;;;;5054159;28;20208;-72
2021/01/13 15:46:48;;;;;;;8.63;4.20;;;6.90;99.90;;;;;;5053826;28;20208;-71
2021/01/13 15:49:15;;;;;;;10.23;4.77;;;6.90;99.90;;;;;;5054613;28;20211;-72
2021/01/13 15:51:45;;;;;;;6.30;3.43;;;6.90;99.90;;;;;;5054185;28;20224;-73
2021/01/13 15:54:12;;;;;;;8.63;4.10;;;6.90;99.90;;;;;;5054165;28;20272;-71
2021/01/13 15:56:40;;;;;;;7.77;4.07;;;6.90;99.90;;;;;;5054259;28;20204;-81
2021/01/13 15:59:07;;;;;;;11.97;4.00;;;6.90;99.90;;;;;;5053968;28;20297;-71
2021/01/13 16:01:36;;;;;;;8.40;3.97;;;6.90;99.90;;;;;;5054147;28;20227;-80
2021/01/13 16:04:03;;;;;;;7.57;4.33;;;7.00;99.90;;;;;;5053184;28;20256;-72
2021/01/13 16:06:31;;;;;;;10.00;5.00;;;7.00;99.90;;;;;;5054045;28;20204;-81
2021/01/13 16:08:58;;;;;;;7.30;4.20;;;7.10;99.90;;;;;;5053582;28;20208;-75
2021/01/13 16:11:24;;;;;;;10.47;4.60;;;7.00;99.90;;;;;;5054293;28;20231;-80
2021/01/13 16:13:59;;;;;;;9.77;5.30;;;7.10;99.90;;;;;;5053508;28;20216;-72
2021/01/13 16:16:26;;;;;;;14.67;5.57;;;7.10;99.90;;;;;;5053615;28;20204;-81
2021/01/13 16:18:53;;;;;;;14.03;5.20;;;7.10;99.90;;;;;;5053464;28;20227;-72
2021/01/13 16:21:19;;;;;;;12.23;5.30;;;7.10;99.90;;;;;;5053354;28;20236;-71
2021/01/13 16:23:46;;;;;;;11.60;4.87;;;7.10;99.90;;;;;;5051960;28;20582;-79
2021/01/13 16:26:13;;;;;;;11.03;5.23;;;7.20;99.90;;;;;;5053209;28;20254;-72
2021/01/13 16:28:40;;;;;;;12.27;5.23;;;7.20;99.90;;;;;;5052841;28;20230;-81
2021/01/13 16:31:08;;;;;;;12.23;5.30;;;7.20;99.90;;;;;;5052828;28;20228;-72
2021/01/13 16:33:39;;;;;;;15.83;5.77;;;7.10;99.90;;;;;;5052716;28;20200;-79
2021/01/13 16:36:09;;;;;;;13.03;5.63;;;7.10;99.90;;;;;;5052881;28;20690;-72
2021/01/13 16:38:35;;;;;;;12.10;5.23;;;7.00;99.90;;;;;;5052801;28;20227;-72
2021/01/13 16:41:02;;;;;;;14.10;5.07;;;7.00;99.90;;;;;;5052181;28;20228;-72
2021/01/13 16:43:32;;;;;;;12.03;4.93;;;7.10;99.90;;;;;;5052561;28;20208;-72
2021/01/13 16:46:02;;;;;;;10.93;4.93;;;7.10;99.90;;;;;;5052425;28;20207;-72
2021/01/13 16:48:29;;;;;;;13.57;5.40;;;7.10;99.90;;;;;;5052728;28;20208;-72
2021/01/13 16:50:57;;;;;;;10.50;4.80;;;7.10;99.90;;;;;;5052845;28;20234;-71
2021/01/13 16:53:23;;;;;;;11.90;4.90;;;7.00;99.90;;;;;;5052495;28;20200;-71
2021/01/13 16:55:50;;;;;;;9.93;4.90;;;6.90;99.90;;;;;;5052713;28;20238;-71
2021/01/13 16:58:20;;;;;;;13.50;5.20;;;6.90;99.90;;;;;;5052733;28;20278;-71
2021/01/13 17:00:48;;;;;;;10.10;4.57;;;6.80;99.90;;;;;;5052365;28;20235;-71
2021/01/13 17:03:17;;;;;;;9.13;4.03;;;6.90;99.90;;;;;;5052542;28;20215;-74
2021/01/13 17:05:44;;;;;;;10.77;4.80;;;6.90;99.90;;;;;;5052534;28;20571;-71
2021/01/13 17:08:11;;;;;;;12.17;4.67;;;6.80;99.90;;;;;;5052849;28;20208;-79
2021/01/13 17:10:38;;;;;;;11.83;4.10;;;6.90;99.90;;;;;;5052393;28;20224;-72
2021/01/13 17:13:09;;;;;;;10.60;4.77;;;7.00;99.90;;;;;;5052982;28;20277;-72
2021/01/13 17:15:42;;;;;;;7.50;3.40;;;7.10;99.90;;;;;;5054805;28;20208;-72
2021/01/13 17:18:11;;;;;;;9.03;3.73;;;7.00;99.90;;;;;;5058889;28;20235;-72
2021/01/13 17:20:38;;;;;;;10.77;4.10;;;7.00;99.90;;;;;;5059394;28;20231;-73
2021/01/13 17:23:04;;;;;;;8.80;4.40;;;7.00;99.90;;;;;;5059184;28;20200;-71
2021/01/13 17:25:32;;;;;;;9.07;3.93;;;7.00;99.90;;;;;;5059123;28;20207;-78
2021/01/13 17:27:58;;;;;;;9.90;4.00;;;6.90;99.90;;;;;;5058851;28;20207;-70
2021/01/13 17:30:25;;;;;;;8.83;4.50;;;7.00;99.90;;;;;;5058800;28;20615;-71
2021/01/13 17:32:58;;;;;;;11.27;3.67;;;7.10;99.90;;;;;;5058760;28;20222;-78
2021/01/13 17:35:25;;;;;;;8.80;3.77;;;7.00;99.90;;;;;;5059084;28;20210;-70
2021/01/13 17:37:51;;;;;;;9.00;3.93;;;7.10;99.90;;;;;;5059440;28;20204;-73
2021/01/13 17:40:19;;;;;;;9.20;4.10;;;6.90;99.90;;;;;;5059579;28;20208;-71
2021/01/13 17:42:48;;;;;;;8.03;4.00;;;6.90;99.90;;;;;;5059063;28;20204;-71
2021/01/13 17:45:16;;;;;;;9.37;4.37;;;7.10;99.90;;;;;;5057552;28;20215;-71
2021/01/13 17:47:43;;;;;;;8.20;3.90;;;7.10;99.90;;;;;;5058903;28;20264;-80
2021/01/13 17:50:11;;;;;;;10.50;4.27;;;7.20;99.90;;;;;;5059586;28;20204;-79
2021/01/13 17:52:42;;;;;;;9.57;3.97;;;7.20;99.90;;;;;;5060192;28;20566;-80
2021/01/13 17:55:09;;;;;;;9.47;4.20;;;7.20;99.90;;;;;;5060316;28;20204;-80
2021/01/13 17:57:35;;;;;;;9.33;3.93;;;7.20;99.90;;;;;;5059154;28;20208;-80
2021/01/13 18:00:05;;;;;;;10.83;4.73;;;7.30;99.90;;;;;;5058862;28;20654;-80
2021/01/13 18:02:35;;;;;;;11.97;4.03;;;7.40;99.90;;;;;;5059212;28;20265;-72
2021/01/13 18:05:05;;;;;;;12.10;4.37;;;7.40;99.90;;;;;;5058962;28;20689;-72
2021/01/13 18:07:34;;;;;;;7.03;3.50;;;7.30;99.90;;;;;;5059059;28;20208;-72
2021/01/13 18:10:01;;;;;;;10.03;4.10;;;7.20;99.90;;;;;;5058955;28;20204;-79
2021/01/13 18:12:27;;;;;;;8.47;4.00;;;7.20;99.90;;;;;;5058441;28;20204;-72
2021/01/13 18:14:53;;;;;;;8.87;4.23;;;7.30;99.90;;;;;;5058446;28;20270;-72
2021/01/13 18:17:20;;;;;;;12.47;4.43;;;7.30;99.90;;;;;;5059093;28;20216;-75
2021/01/13 18:19:46;;;;;;;10.07;4.40;;;7.40;99.90;;;;;;5058779;28;20726;-72
2021/01/13 18:22:13;;;;;;;8.07;4.00;;;7.40;99.90;;;;;;5058701;28;20228;-72
2021/01/13 18:24:39;;;;;;;6.43;3.13;;;7.50;99.90;;;;;;5059302;28;20215;-80
2021/01/13 18:27:05;;;;;;;12.77;5.60;;;7.30;99.90;;;;;;5056726;28;20563;-80
2021/01/13 18:29:32;;;;;;;10.53;4.30;;;7.40;99.90;;;;;;5055984;28;20555;-80
2021/01/13 18:31:58;;;;;;;8.47;4.20;;;7.40;99.90;;;;;;5056045;28;20235;-76
2021/01/13 18:34:25;;;;;;;9.57;3.43;;;7.40;99.90;;;;;;5056312;28;20208;-72
2021/01/13 18:36:51;;;;;;;11.87;4.30;;;7.40;99.90;;;;;;5056631;28;20210;-72
2021/01/13 18:39:17;;;;;;;12.73;5.00;;;7.40;99.90;;;;;;5055642;28;20235;-80
2021/01/13 18:41:45;;;;;;;11.10;4.30;;;7.40;99.90;;;;;;5054850;28;20224;-72
2021/01/13 18:44:11;;;;;;;9.27;4.17;;;7.40;99.90;;;;;;5055594;28;20246;-73
2021/01/13 18:46:39;;;;;;;9.03;4.53;;;7.40;99.90;;;;;;5055143;28;20288;-72
2021/01/13 18:49:06;;;;;;;10.57;4.17;;;7.40;99.90;;;;;;5055511;28;20215;-78
2021/01/13 18:51:33;;;;;;;13.40;4.77;;;7.40;99.90;;;;;;5055563;28;20701;-72
2021/01/13 18:53:59;;;;;;;10.20;4.57;;;7.40;99.90;;;;;;5055251;28;20204;-72
2021/01/13 18:56:26;;;;;;;10.90;4.80;;;7.30;99.90;;;;;;5054901;28;20200;-80
2021/01/13 18:58:52;;;;;;;12.07;5.00;;;7.20;99.90;;;;;;5050538;28;20302;-75
2021/01/13 19:01:19;;;;;;;8.23;4.27;;;7.20;99.90;;;;;;5053125;28;20303;-77
2021/01/13 19:03:46;;;;;;;9.10;4.57;;;7.30;99.90;;;;;;5054137;28;20208;-76
2021/01/13 19:06:12;;;;;;;12.47;4.67;;;7.30;99.90;;;;;;5052845;28;20257;-74
2021/01/13 19:08:39;;;;;;;13.40;5.50;;;7.30;99.90;;;;;;5052907;28;20294;-77
2021/01/13 19:11:06;;;;;;;10.17;4.47;;;7.10;99.90;;;;;;5052892;28;20220;-77
2021/01/13 19:13:32;;;;;;;11.37;4.90;;;7.10;99.90;;;;;;5043703;28;20212;-78
2021/01/13 19:15:58;;;;;;;11.50;5.67;;;7.10;99.90;;;;;;5037298;28;20197;-75
2021/01/13 19:18:24;;;;;;;11.33;4.80;;;7.10;99.90;;;;;;5034099;28;20240;-80
2021/01/13 19:20:50;;;;;;;10.83;4.90;;;7.00;99.90;;;;;;5036231;28;20221;-75
2021/01/13 19:23:17;;;;;;;14.73;5.03;;;7.10;99.90;;;;;;5034382;28;20615;-79
2021/01/13 19:25:44;;;;;;;14.03;5.40;;;7.10;99.90;;;;;;5035170;28;20205;-74
2021/01/13 19:28:11;;;;;;;10.47;5.13;;;7.10;99.90;;;;;;5034833;28;20209;-80
2021/01/13 19:30:38;;;;;;;10.47;5.20;;;7.00;99.90;;;;;;5034593;28;20225;-79
2021/01/13 19:33:04;;;;;;;17.50;5.77;;;6.90;99.90;;;;;;5034453;28;20204;-75
2021/01/13 19:35:31;;;;;;;12.00;5.27;;;7.00;99.90;;;;;;5034267;28;20263;-78
2021/01/13 19:37:58;;;;;;;13.30;5.40;;;7.00;99.90;;;;;;5034027;28;20212;-80
2021/01/13 19:40:25;;;;;;;13.53;5.30;;;7.10;99.90;;;;;;5033508;28;20229;-79
2021/01/13 19:42:55;;;;;;;12.53;6.00;;;7.10;99.90;;;;;;5034721;28;20201;-79
2021/01/13 19:45:22;;;;;;;10.67;5.33;;;7.30;99.90;;;;;;5034274;28;20209;-80
2021/01/13 19:47:50;;;;;;;13.13;5.40;;;7.30;99.90;;;;;;5034388;28;20567;-75
2021/01/13 19:50:17;;;;;;;17.20;6.03;;;7.30;99.90;;;;;;5041804;28;20200;-77
2021/01/13 19:52:49;;;;;;;13.17;5.27;;;7.30;99.90;;;;;;5047886;28;20200;-77
2021/01/13 19:55:15;;;;;;;12.87;5.50;;;7.30;99.90;;;;;;5047123;28;20212;-78
2021/01/13 19:57:41;;;;;;;12.93;5.57;;;7.30;99.90;;;;;;5049656;28;20200;-75
2021/01/13 20:00:11;;;;;;;14.83;5.87;;;7.30;99.90;;;;;;5047279;28;20231;-75
2021/01/13 20:02:38;;;;;;;15.37;6.27;;;7.30;99.90;;;;;;5048491;28;20643;-78
2021/01/13 20:05:05;;;;;;;13.20;5.83;;;7.40;99.90;;;;;;5043233;28;20254;-77
2021/01/13 20:07:32;;;;;;;12.00;5.77;;;7.40;99.90;;;;;;5053217;28;20254;-74
2021/01/13 20:09:58;;;;;;;12.70;5.17;;;7.30;99.90;;;;;;5049757;28;20208;-74
2021/01/13 20:12:25;;;;;;;13.73;5.40;;;7.30;99.90;;;;;;5044021;28;20602;-78
2021/01/13 20:14:52;;;;;;;14.47;5.37;;;7.20;99.90;;;;;;5046008;28;20209;-74
2021/01/13 20:17:19;;;;;;;17.50;7.37;;;7.10;99.90;;;;;;5046957;28;20208;-78
2021/01/13 20:19:46;;;;;;;11.03;5.20;;;7.10;99.90;;;;;;5042554;28;20232;-78
2021/01/13 20:22:12;;;;;;;16.97;6.47;;;7.20;99.90;;;;;;5041156;28;20574;-77
2021/01/13 20:24:41;;;;;;;12.83;6.10;;;7.10;99.90;;;;;;5045906;28;20199;-78
2021/01/13 20:27:07;;;;;;;10.87;5.20;;;7.10;99.90;;;;;;5044074;28;20644;-74
2021/01/13 20:29:33;;;;;;;13.10;5.83;;;7.20;99.90;;;;;;5050766;28;20250;-74
2021/01/13 20:32:00;;;;;;;11.40;6.23;;;7.20;99.90;;;;;;5039728;28;20235;-75
2021/01/13 20:34:28;;;;;;;13.27;6.30;;;7.20;99.90;;;;;;5050509;28;20204;-75
2021/01/13 20:36:55;;;;;;;13.00;6.57;;;7.20;99.90;;;;;;5048298;28;20211;-74
2021/01/13 20:39:21;;;;;;;16.10;5.70;;;7.20;99.90;;;;;;5041875;28;20232;-75
2021/01/13 20:41:49;;;;;;;12.83;6.27;;;7.20;99.90;;;;;;5045011;28;20223;-75
2021/01/13 20:44:17;;;;;;;15.13;6.53;;;7.10;99.90;;;;;;5046489;28;20208;-75
2021/01/13 20:46:44;;;;;;;16.17;6.70;;;7.00;99.90;;;;;;5042886;28;20570;-78
2021/01/13 20:49:11;;;;;;;15.53;6.97;;;7.00;99.90;;;;;;5049505;28;20204;-73
2021/01/13 20:51:40;;;;;;;14.50;5.80;;;7.00;99.90;;;;;;5043857;28;20290;-75
2021/01/13 20:54:06;;;;;;;14.37;6.23;;;7.10;99.90;;;;;;5047718;28;20211;-74
2021/01/13 20:56:42;;;;;;;20.83;7.07;;;7.10;99.90;;;;;;5050071;28;20207;-74
2021/01/13 20:59:09;;;;;;;15.60;6.63;;;7.00;99.90;;;;;;5046640;28;20728;-74
2021/01/13 21:01:35;;;;;;;15.97;6.87;;;7.00;99.90;;;;;;5047967;28;20274;-73
2021/01/13 21:04:01;;;;;;;14.33;6.47;;;7.00;99.90;;;;;;5046982;28;20563;-77
2021/01/13 21:06:29;;;;;;;14.17;5.50;;;7.10;99.90;;;;;;5045039;28;20691;-74
2021/01/13 21:08:56;;;;;;;15.23;6.63;;;7.10;99.90;;;;;;5045799;28;20200;-76
2021/01/13 21:11:23;;;;;;;12.90;5.63;;;7.10;99.90;;;;;;5049031;28;20267;-74
2021/01/13 21:13:49;;;;;;;9.97;4.97;;;7.10;99.90;;;;;;5047941;28;20208;-73
2021/01/13 21:16:16;;;;;;;11.80;4.83;;;6.90;99.90;;;;;;5047935;28;20207;-77
2021/01/13 21:18:42;;;;;;;11.47;5.07;;;7.00;99.90;;;;;;5049286;28;20236;-73
2021/01/13 21:21:11;;;;;;;11.20;4.53;;;6.80;99.90;;;;;;5047414;28;20239;-73
2021/01/13 21:23:37;;;;;;;8.03;4.00;;;6.90;99.90;;;;;;5049361;28;20215;-76
2021/01/13 21:26:04;;;;;;;9.77;4.43;;;6.90;99.90;;;;;;5048669;28;20200;-74
2021/01/13 21:28:30;;;;;;;11.10;3.90;;;6.90;99.90;;;;;;5049013;28;20318;-74
2021/01/13 21:30:57;;;;;;;6.53;3.70;;;6.90;99.90;;;;;;5046577;28;20586;-73
2021/01/13 21:33:23;;;;;;;10.87;3.50;;;7.00;99.90;;;;;;5045465;28;20674;-74
2021/01/13 21:35:51;;;;;;;5.93;2.90;;;6.90;99.90;;;;;;5043867;28;20207;-75
2021/01/13 21:38:17;;;;;;;5.57;2.47;;;6.70;99.90;;;;;;5047940;28;20235;-75
2021/01/13 21:40:44;;;;;;;6.67;2.40;;;6.70;99.90;;;;;;5040878;28;20718;-76
2021/01/13 21:43:11;;;;;;;7.50;2.53;;;6.60;99.90;;;;;;5045930;28;20200;-75
2021/01/13 21:45:37;;;;;;;5.70;2.10;;;6.70;99.90;;;;;;5046145;28;20212;-73
2021/01/13 21:48:05;;;;;;;4.90;2.40;;;6.60;99.90;;;;;;5051684;28;20208;-74
2021/01/13 21:50:31;;;;;;;6.43;2.37;;;6.60;99.90;;;;;;5049613;28;20295;-73
2021/01/13 21:52:57;;;;;;;3.67;2.20;;;6.60;99.90;;;;;;5044149;28;20439;-74
2021/01/13 21:55:25;;;;;;;5.23;2.23;;;6.70;99.90;;;;;;5051900;28;20231;-75
2021/01/13 21:57:52;;;;;;;4.83;1.83;;;6.70;99.90;;;;;;5048487;28;20675;-74
2021/01/13 22:00:19;;;;;;;5.47;2.20;;;6.60;99.90;;;;;;5047495;28;20721;-74
2021/01/13 22:02:45;;;;;;;3.47;1.83;;;6.70;99.90;;;;;;5048859;28;20212;-77
2021/01/13 22:05:12;;;;;;;5.47;2.33;;;6.80;99.90;;;;;;5048834;28;20223;-74
2021/01/13 22:07:38;;;;;;;5.90;2.27;;;6.80;99.90;;;;;;5050828;28;20205;-73
2021/01/13 22:10:06;;;;;;;3.43;1.70;;;6.80;99.90;;;;;;5052214;28;20395;-76
2021/01/13 22:12:33;;;;;;;3.77;2.00;;;6.70;99.90;;;;;;5054654;28;20570;-79
